Cedar Springs, MI (49319)

7:18 PM EST on February 14, 2016 (GMT -0500)
SE Cedar Springs | | Change Station
CLOSE
Current Station
Personal Weather Station
Location: Cedar Springs, MI
Elevation: 865 ft
Nearby Weather Stations

Elev 865 ft 43.19 °N, 85.51 °W | Updated 2 seconds ago

Overcast
Overcast
15.9 °F
Feels Like 7 °F
N
6.0
Wind Variable Wind from NW
Gusts 17.0 mph

Today
High -- | Low -- °F
--% Chance of Precip.
Yesterday
High -- | Low -- °F
Precip. -- in
Pressure 30.22 in
Visibility 10.0 miles
Clouds Scattered Clouds 6000 ft
Mostly Cloudy 11000 ft
Mostly Cloudy 22000 ft
Windchill 7 °F
Dew Point 7 °F
Humidity 66%
Rainfall 0.00 in
Snow Depth Not available.
7:42 AM 6:11 PM
Waxing Crescent, 47% visible
METAR KGRR 142353Z 13014KT 10SM SCT060 BKN110 BKN220 M08/M14 A3016 RMK AO2 SLP231 T10781144 11067 21078 56023
Pressure 30.22 in
Visibility 10.0 miles
Clouds Scattered Clouds 6000 ft
Mostly Cloudy 11000 ft
Mostly Cloudy 22000 ft
Windchill 7 °F
Dew Point 7 °F
Humidity 66%
Rainfall 0.00 in
Snow Depth Not available.
7:42 AM 6:11 PM
Waxing Crescent, 47% visible
METAR KGRR 142353Z 13014KT 10SM SCT060 BKN110 BKN220 M08/M14 A3016 RMK AO2 SLP231 T10781144 11067 21078 56023

10-Day Weather Forecast

Almanac

Astronomy

Feb. 14, 2016 Rise Set
Actual Time
Civil Twilight
Nautical Twilight
Astronomical Twilight
Moon
Length of Visible Light
Length of Day
Tomorrow will be .
, % of the Moon is Illuminated

Today's Extremes

State Highs State Lows

Community

WunderPhotos

Upload Photos

1,892,938 photos uploaded!

WunderBlog® & News

Nearby

Air Quality

  Air Quality AQ Index Pollutant
Not available.

Snow Depth

Station Depth Elevation

Earthquake Activity

City Distance Mag. Time & Date
Minimum magnitude displayed is 2.5.

Coastal Water Temperatures

Place Temperature

Stations

Nearby Weather Stations

Station Location Temp. Windchill Dew Point Humidity Wind Precip. Elev Updated Type
                   

Watches & Warnings

There are currently no watches in effect.